Hauptseite
METAR-TAF:

METAR-TAF

Flughäfen :

Düsseldorf, Deutschland

Düsseldorf Airport

Breite: 51-18N, Länge: 006-46E, Höhe: 45 m

Beobachtung

Neuester Wetterbericht von vor 20 Stunden und 37 Minuten, um 14:50 UTC
Wind 9 kt aus Nord/Nordost, variierte zwischen Nord und Ost/Nordost
Temperatur 6°C
Luftfeuchtigkeit 52%
Luftdruck 1018 hPa
Sichtweite 10 km oder mehr
keine Wolken unter 1500 m und keine Kumulonimbus oder Gewitterwolken

METAR: EDDL 201450Z 03009KT 360V060 CAVOK 06/M03 Q1018 NOSIG

Zeit: 12:27 (11:27 UTC)

Prognose

Neuester Wetterbericht von vor 27 Minuten, um 11:00 UTC
Gültige Prognose vom 20 um 12 UTC bis 21 um 18 UTC
Wind 7 kt aus Nord/Nordost
Sichtweite 10 km oder mehr
Leicht bewölkt in der Höhe von 3000 ft

TAF: EDDL 201100Z 2012/2118 02007KT 9999 FEW030

Wetterbeobachtungen und Prognosen von mehr als 4000 Flughäfen (METAR und TAF Bericht).

Die verfügbaren Stationen werden durch gelbe und rote Markierungen auf der Karte dargestellt.

Führen Sie die Maus auf sie, um den Namen der Station zu sehen.

Darauf klicken, um die Beobachtung von Wetterbeobachtungen und Prognosen zu sehen.

Um die Karte zu ändern : klicken Sie auf den grünen Tasten mit einem schwarzen Kreuz Zum Vergrößern, auf den grünen Button mit einem Gedankenstrich zu verkleinern, oder auf die grünen Pfeile für benachbarte Karten.


METAR-TAF: